Time;durP1;ratioP1;P1;durP2;ratioP2;P2;SDS_P1;SDS_P2;PMS_P1;PMS_P2;Temp;Humidity;BMP_temperature;BMP_pressure;BME280_temperature;BME280_humidity;BME280_pressure;Samples;Min_cycle;Max_cycle;Signal;HPM_P1;HPM_P2
2023/08/08 22:00:53;;;;;;;1.42;1.23;;;;;;;16.23;100.00;96716.06;4071408;28;20228;-60
2023/08/08 22:03:19;;;;;;;4.47;1.63;;;;;;;16.10;100.00;96715.81;5029066;28;20207;-60
2023/08/08 22:05:46;;;;;;;1.63;1.52;;;;;;;16.16;100.00;96720.44;5031432;28;20214;-61
2023/08/08 22:08:13;;;;;;;1.73;1.60;;;;;;;16.21;100.00;96726.09;5013621;28;20658;-59
2023/08/08 22:10:42;;;;;;;1.55;1.45;;;;;;;16.23;100.00;96710.72;5031224;28;20231;-61
2023/08/08 22:13:09;;;;;;;3.33;1.20;;;;;;;16.19;100.00;96714.78;5029022;28;20556;-61
2023/08/08 22:15:36;;;;;;;2.13;1.35;;;;;;;16.15;100.00;96714.28;5029420;28;20230;-61
2023/08/08 22:18:12;;;;;;;1.50;1.40;;;;;;;16.16;100.00;96705.25;5030343;28;20567;-59
2023/08/08 22:20:39;;;;;;;2.25;1.60;;;;;;;16.21;100.00;96710.06;5031350;28;20687;-63
2023/08/08 22:23:06;;;;;;;1.42;1.33;;;;;;;16.16;100.00;96710.59;5030607;28;20207;-61
2023/08/08 22:25:32;;;;;;;1.40;1.15;;;;;;;16.13;100.00;96712.78;5030333;28;20235;-64
2023/08/08 22:27:59;;;;;;;1.95;1.40;;;;;;;16.18;100.00;96716.59;5031377;28;20532;-65
2023/08/08 22:30:25;;;;;;;2.55;1.40;;;;;;;16.23;100.00;96716.06;5030848;28;20199;-65
2023/08/08 22:32:53;;;;;;;1.80;1.50;;;;;;;16.20;100.00;96719.91;5038065;28;20196;-67
2023/08/08 22:35:22;;;;;;;2.65;1.92;;;;;;;16.17;100.00;96722.09;5049049;28;20196;-59
2023/08/08 22:37:49;;;;;;;1.40;1.30;;;;;;;16.20;100.00;96711.91;5049015;28;20235;-67
2023/08/08 22:40:16;;;;;;;3.40;1.70;;;;;;;16.18;100.00;96703.25;5050793;28;20195;-65
2023/08/08 22:42:43;;;;;;;3.42;1.45;;;;;;;16.14;100.00;96704.63;5051291;28;20195;-59
2023/08/08 22:45:11;;;;;;;1.42;1.35;;;;;;;16.10;100.00;96711.31;5051818;28;20227;-59
2023/08/08 22:47:38;;;;;;;1.85;1.60;;;;;;;16.06;100.00;96706.50;5047461;28;20206;-60
2023/08/08 22:50:09;;;;;;;2.15;1.55;;;;;;;16.12;100.00;96711.94;5040163;28;20215;-67
2023/08/08 22:52:37;;;;;;;1.67;1.58;;;;;;;16.09;100.00;96706.97;5040079;28;20270;-58
2023/08/08 22:55:04;;;;;;;1.75;1.52;;;;;;;16.09;100.00;96692.78;5039623;28;20198;-58
2023/08/08 22:57:31;;;;;;;1.52;1.38;;;;;;;16.09;100.00;96695.47;5040750;28;20261;-59
2023/08/08 22:59:58;;;;;;;1.65;1.50;;;;;;;16.09;100.00;96688.28;5047987;28;20277;-59
2023/08/08 23:02:24;;;;;;;3.20;1.80;;;;;;;16.03;100.00;96682.84;5037572;28;20331;-58
2023/08/08 23:04:51;;;;;;;1.73;1.45;;;;;;;16.04;100.00;96680.00;5031502;28;20191;-59
2023/08/08 23:07:18;;;;;;;1.85;1.35;;;;;;;16.06;100.00;96683.31;5030715;28;20290;-58
2023/08/08 23:09:48;;;;;;;1.67;1.58;;;;;;;16.05;100.00;96681.66;5012870;28;20203;-59
2023/08/08 23:12:14;;;;;;;3.40;1.55;;;;;;;16.07;100.00;96676.16;5030682;28;20273;-60
2023/08/08 23:14:41;;;;;;;1.63;1.30;;;;;;;16.06;100.00;96687.81;5030506;28;20299;-59
2023/08/08 23:17:08;;;;;;;1.55;1.10;;;;;;;16.07;100.00;96689.50;5030365;28;20227;-59
2023/08/08 23:19:34;;;;;;;2.67;1.63;;;;;;;16.05;100.00;96686.19;5029296;28;20200;-59
2023/08/08 23:22:03;;;;;;;1.60;1.50;;;;;;;16.03;100.00;96689.00;5029353;28;20218;-59
2023/08/08 23:24:32;;;;;;;2.03;1.42;;;;;;;16.04;100.00;96679.19;5030224;28;20295;-59
2023/08/08 23:27:00;;;;;;;2.40;1.27;;;;;;;16.06;100.00;96677.16;5030030;28;20640;-59
2023/08/08 23:29:26;;;;;;;3.38;1.80;;;;;;;16.02;100.00;96663.34;5030517;28;20211;-59
2023/08/08 23:31:53;;;;;;;1.42;1.33;;;;;;;16.03;100.00;96654.34;5029604;28;20231;-60
2023/08/08 23:34:19;;;;;;;1.92;1.67;;;;;;;16.07;100.00;96654.81;5030875;28;20234;-59
2023/08/08 23:36:46;;;;;;;1.83;1.50;;;;;;;16.05;100.00;96654.97;5030811;28;20227;-59
2023/08/08 23:39:13;;;;;;;3.63;1.55;;;;;;;16.07;100.00;96658.31;5035081;28;20295;-59
2023/08/08 23:41:40;;;;;;;1.50;1.40;;;;;;;16.06;100.00;96653.13;5033568;28;20232;-61
2023/08/08 23:44:08;;;;;;;2.42;2.20;;;;;;;16.08;100.00;96653.81;5033801;28;21038;-59
2023/08/08 23:46:35;;;;;;;1.70;1.58;;;;;;;16.04;100.00;96647.16;5033497;28;20200;-59
2023/08/08 23:49:01;;;;;;;3.00;1.58;;;;;;;16.04;100.00;96645.31;5034284;28;20218;-59
2023/08/08 23:51:28;;;;;;;2.50;1.70;;;;;;;16.02;100.00;96643.81;5033671;28;20207;-58
2023/08/08 23:53:55;;;;;;;1.77;1.67;;;;;;;16.04;100.00;96640.00;5032778;28;20215;-58
2023/08/08 23:56:21;;;;;;;4.00;1.70;;;;;;;16.02;100.00;96641.16;5032032;28;20636;-58
2023/08/08 23:58:48;;;;;;;2.20;2.00;;;;;;;16.06;100.00;96642.47;5034210;28;20207;-59
